Terminal Aerodrome Forecast
Issued by NWS Cleveland, OH

Home | Current Version | Previous Version | Graphics & Text | Print | Product List | Glossary Off
Versions: 1 2 3 4 5 6 7 8 9 10 11 12 13 14 15

000
FTUS41 KCLE 292300
TAFYNG
TAF
KYNG 292331Z 3000/3024 28008KT P6SM SCT028 OVC035
     FM300400 28005KT P6SM BKN028
      TEMPO 3004/3008 SCT028 BKN035
     FM300800 27005KT P6SM SCT018 BKN028
      TEMPO 3009/3012 BKN018=

USA.gov is the U.S. government's official web portal to all federal, state and local government web resources and services.